createdAt,value
2023-04-19T00:00:21.800Z,20.90
2023-04-19T00:02:52.691Z,21.60
2023-04-19T00:05:24.812Z,21.67
2023-04-19T00:07:54.967Z,17.47
2023-04-19T00:10:24.912Z,20.13
2023-04-19T00:12:55.213Z,20.77
2023-04-19T00:15:27.686Z,20.33
2023-04-19T00:17:58.023Z,20.30
2023-04-19T00:20:28.032Z,23.67
2023-04-19T00:22:58.983Z,18.70
2023-04-19T00:25:30.978Z,21.57
2023-04-19T00:28:00.806Z,19.60
2023-04-19T00:30:33.405Z,19.83
2023-04-19T00:33:03.443Z,20.23
2023-04-19T00:35:33.403Z,19.70
2023-04-19T00:38:03.748Z,23.83
2023-04-19T00:40:35.059Z,21.10
2023-04-19T00:43:04.971Z,20.07
2023-04-19T00:45:38.863Z,19.90
2023-04-19T00:48:09.258Z,22.80
2023-04-19T00:50:39.596Z,22.03
2023-04-19T00:53:10.820Z,21.03
2023-04-19T00:55:42.601Z,19.90
2023-04-19T00:58:13.005Z,20.40
2023-04-19T01:00:46.040Z,19.67
2023-04-19T01:03:17.220Z,17.10
2023-04-19T01:05:47.470Z,17.50
2023-04-19T01:08:17.388Z,17.80
2023-04-19T01:10:47.356Z,21.03
2023-04-19T01:13:17.192Z,21.23
2023-04-19T01:15:49.967Z,21.10
2023-04-19T01:18:20.053Z,17.77
2023-04-19T01:20:49.897Z,19.83
2023-04-19T01:23:22.553Z,21.57
2023-04-19T01:25:52.876Z,20.27
2023-04-19T01:28:22.906Z,21.47
2023-04-19T01:30:54.400Z,19.37
2023-04-19T01:33:24.696Z,22.47
2023-04-19T01:35:54.870Z,18.33
2023-04-19T01:38:27.422Z,21.07
2023-04-19T01:40:57.836Z,19.47
2023-04-19T01:43:27.690Z,18.87
2023-04-19T01:45:57.985Z,20.20
2023-04-19T01:48:28.067Z,22.10
2023-04-19T01:50:58.340Z,19.80
2023-04-19T01:53:31.145Z,19.93
2023-04-19T01:56:01.140Z,17.90
2023-04-19T01:58:31.108Z,18.70
2023-04-19T02:01:01.070Z,19.60
2023-04-19T02:03:31.221Z,19.40
2023-04-19T02:06:01.453Z,19.43
2023-04-19T02:08:34.549Z,17.53
2023-04-19T02:11:09.016Z,21.37
2023-04-19T02:13:39.162Z,16.27
2023-04-19T02:16:10.316Z,19.63
2023-04-19T02:18:40.900Z,21.17
2023-04-19T02:21:12.407Z,19.37
2023-04-19T02:23:44.930Z,24.20
2023-04-19T02:26:14.830Z,21.57
2023-04-19T02:28:44.724Z,16.47
2023-04-19T02:31:14.834Z,17.43
2023-04-19T02:33:46.937Z,17.03
2023-04-19T02:36:20.154Z,18.63
2023-04-19T02:38:52.675Z,17.10
2023-04-19T02:41:24.116Z,21.23
2023-04-19T02:43:54.159Z,18.50
2023-04-19T02:46:24.237Z,15.97
2023-04-19T02:48:54.324Z,16.70
2023-04-19T02:51:24.195Z,19.87
2023-04-19T02:53:56.801Z,15.67
2023-04-19T02:56:26.750Z,16.27
2023-04-19T02:58:57.602Z,14.70
2023-04-19T03:01:27.577Z,14.10
2023-04-19T03:03:57.700Z,12.57
2023-04-19T03:06:28.163Z,16.33
2023-04-19T03:09:01.046Z,11.40
2023-04-19T03:11:30.927Z,13.60
2023-04-19T03:14:00.981Z,12.83
2023-04-19T03:16:30.822Z,13.73
2023-04-19T03:19:00.818Z,12.53
2023-04-19T03:21:30.889Z,13.03
2023-04-19T03:24:04.175Z,22.60
2023-04-19T03:26:34.165Z,13.63
2023-04-19T03:29:04.782Z,12.77
2023-04-19T03:31:34.761Z,12.10
2023-04-19T03:34:04.899Z,11.53
2023-04-19T03:36:35.043Z,11.67
2023-04-19T03:39:08.917Z,9.67
2023-04-19T03:41:38.875Z,12.23
2023-04-19T03:44:08.776Z,13.63
2023-04-19T03:46:38.825Z,13.43
2023-04-19T03:49:08.893Z,10.67
2023-04-19T03:51:38.924Z,11.00
2023-04-19T03:54:11.719Z,12.17
2023-04-19T03:56:41.542Z,8.90
2023-04-19T03:59:12.632Z,13.07
2023-04-19T04:01:42.852Z,10.87
2023-04-19T04:04:15.944Z,9.97
2023-04-19T04:06:46.236Z,10.70
2023-04-19T04:09:18.827Z,8.17
2023-04-19T04:11:49.121Z,10.70
2023-04-19T04:14:19.050Z,8.73
2023-04-19T04:16:49.262Z,11.50
2023-04-19T04:19:20.024Z,11.77
2023-04-19T04:21:51.245Z,14.53
2023-04-19T04:24:24.201Z,10.47
2023-04-19T04:26:54.695Z,11.10
2023-04-19T04:29:24.588Z,12.83
2023-04-19T04:31:54.682Z,11.40
2023-04-19T04:34:24.864Z,9.00
2023-04-19T04:36:55.126Z,8.10
2023-04-19T04:39:27.592Z,9.90
2023-04-19T04:41:57.972Z,15.67
2023-04-19T04:44:28.396Z,10.30
2023-04-19T04:46:58.351Z,8.70
2023-04-19T04:49:28.276Z,10.30
2023-04-19T04:51:58.200Z,8.90
2023-04-19T04:54:30.862Z,9.70
2023-04-19T04:57:02.956Z,9.00
2023-04-19T04:59:33.103Z,8.47
2023-04-19T05:02:03.159Z,8.07
2023-04-19T05:04:33.135Z,8.37
2023-04-19T05:07:03.126Z,13.53
2023-04-19T05:09:35.710Z,8.50
2023-04-19T05:12:05.745Z,9.53
2023-04-19T05:14:35.807Z,13.17
2023-04-19T05:17:07.166Z,11.50
2023-04-19T05:19:37.406Z,9.63
2023-04-19T05:22:07.319Z,13.77
2023-04-19T05:24:42.421Z,13.43
2023-04-19T05:27:12.585Z,11.40
2023-04-19T05:29:42.794Z,10.27
2023-04-19T05:32:12.917Z,11.20
2023-04-19T05:34:42.878Z,8.50
2023-04-19T05:37:15.538Z,9.90
2023-04-19T05:39:48.003Z,10.10
2023-04-19T05:42:17.872Z,11.70
2023-04-19T05:44:47.905Z,11.60
2023-04-19T05:47:18.297Z,15.87
2023-04-19T05:49:50.346Z,14.83
2023-04-19T05:52:20.294Z,14.20
2023-04-19T05:54:52.853Z,10.70
2023-04-19T05:57:22.876Z,17.47
2023-04-19T05:59:52.965Z,13.30
2023-04-19T06:02:23.618Z,10.90
2023-04-19T06:04:53.605Z,9.13
2023-04-19T06:07:32.677Z,11.87
2023-04-19T06:10:07.563Z,14.03
2023-04-19T06:12:37.469Z,13.17
2023-04-19T06:15:09.536Z,11.87
2023-04-19T06:17:39.385Z,13.27
2023-04-19T06:20:12.961Z,11.17
2023-04-19T06:22:45.781Z,14.87
2023-04-19T06:25:18.552Z,10.97
2023-04-19T06:27:48.525Z,8.57
2023-04-19T06:30:21.425Z,9.63
2023-04-19T06:32:51.390Z,10.83
2023-04-19T06:35:21.747Z,10.57
2023-04-19T06:37:52.084Z,17.27
2023-04-19T06:40:25.080Z,11.77
2023-04-19T06:42:55.816Z,11.70
2023-04-19T06:45:26.435Z,8.60
2023-04-19T06:47:56.976Z,8.63
2023-04-19T06:50:27.296Z,9.43
2023-04-19T06:52:57.344Z,10.10
2023-04-19T06:55:30.056Z,7.87
2023-04-19T06:57:59.957Z,15.23
2023-04-19T07:00:30.260Z,14.30
2023-04-19T07:03:00.895Z,12.37
2023-04-19T07:05:31.174Z,8.63
2023-04-19T07:08:03.945Z,9.57
2023-04-19T07:10:36.487Z,14.93
2023-04-19T07:13:08.514Z,9.70
2023-04-19T07:15:38.747Z,10.77
2023-04-19T07:18:10.630Z,9.57
2023-04-19T07:20:44.765Z,10.63
2023-04-19T07:23:14.796Z,11.30
2023-04-19T07:25:47.768Z,14.53
2023-04-19T07:28:17.717Z,8.20
2023-04-19T07:30:47.966Z,9.47
2023-04-19T07:33:17.924Z,12.20
2023-04-19T07:35:47.874Z,10.43
2023-04-19T07:38:18.147Z,7.73
2023-04-19T07:40:50.837Z,9.63
2023-04-19T07:43:21.042Z,12.80
2023-04-19T07:45:51.097Z,8.73
2023-04-19T07:48:21.106Z,13.20
2023-04-19T07:50:51.834Z,15.40
2023-04-19T07:53:21.770Z,13.07
2023-04-19T07:55:54.357Z,12.03
2023-04-19T07:58:24.453Z,11.77
2023-04-19T08:00:54.438Z,10.03
2023-04-19T08:03:24.587Z,9.07
2023-04-19T08:05:54.740Z,7.10
2023-04-19T08:08:26.116Z,7.23
2023-04-19T08:11:01.816Z,11.10
2023-04-19T08:13:32.051Z,10.67
2023-04-19T08:18:36.485Z,6.83
2023-04-19T08:21:09.791Z,10.40
2023-04-19T08:23:47.769Z,10.00
2023-04-19T08:26:21.097Z,5.83
2023-04-19T08:28:51.601Z,5.27
2023-04-19T08:31:22.364Z,10.07
2023-04-19T08:33:52.335Z,7.43
2023-04-19T08:36:35.439Z,8.90
2023-04-19T08:39:17.705Z,8.10
2023-04-19T08:42:06.897Z,9.60
2023-04-19T08:44:59.093Z,18.33
2023-04-19T08:47:34.058Z,11.23
2023-04-19T08:50:17.547Z,5.97
2023-04-19T08:53:02.744Z,12.17
2023-04-19T08:55:40.917Z,13.67
2023-04-19T08:58:28.601Z,14.40
2023-04-19T09:01:03.189Z,11.63
2023-04-19T09:03:40.913Z,5.20
2023-04-19T09:06:17.855Z,10.20
2023-04-19T09:08:48.185Z,10.47
2023-04-19T09:11:18.322Z,7.93
2023-04-19T09:13:53.346Z,11.47
2023-04-19T09:16:30.917Z,5.17
2023-04-19T09:21:39.094Z,8.10
2023-04-19T09:24:09.975Z,8.80
2023-04-19T09:26:40.228Z,7.82
2023-04-19T09:29:15.170Z,5.57
2023-04-19T09:32:00.586Z,9.77
2023-04-19T09:34:31.256Z,6.97
2023-04-19T09:37:12.044Z,9.47
2023-04-19T09:39:47.472Z,7.45
2023-04-19T09:42:24.155Z,10.50
2023-04-19T09:45:28.402Z,7.50
2023-04-19T09:48:07.793Z,4.97
2023-04-19T09:50:51.364Z,8.20
2023-04-19T09:53:30.026Z,4.93
2023-04-19T09:56:02.376Z,8.88
2023-04-19T10:01:14.781Z,8.10
2023-04-19T10:03:47.877Z,7.22
2023-04-19T10:08:53.873Z,11.00
2023-04-19T10:11:30.072Z,4.85
2023-04-19T10:14:04.773Z,7.00
2023-04-19T10:16:41.465Z,7.20
2023-04-19T10:19:13.674Z,8.57
2023-04-19T10:21:46.812Z,4.55
2023-04-19T10:24:18.691Z,4.07
2023-04-19T10:27:12.450Z,4.65
2023-04-19T10:29:58.920Z,16.50
2023-04-19T10:32:41.382Z,3.97
2023-04-19T10:35:14.541Z,8.00
2023-04-19T10:37:44.881Z,12.25
2023-04-19T10:40:15.400Z,6.07
2023-04-19T10:43:15.264Z,5.95
2023-04-19T10:45:45.654Z,8.45
2023-04-19T10:48:41.433Z,5.95
2023-04-19T10:51:19.343Z,6.35
2023-04-19T10:53:54.609Z,5.97
2023-04-19T10:56:47.818Z,5.30
2023-04-19T10:59:24.909Z,15.52
2023-04-19T11:01:59.931Z,4.03
2023-04-19T11:05:14.617Z,5.82
2023-04-19T11:07:48.913Z,3.75
2023-04-19T11:10:31.878Z,4.68
2023-04-19T11:13:02.242Z,9.13
2023-04-19T11:15:32.192Z,6.90
2023-04-19T11:18:12.714Z,19.52
2023-04-19T11:20:46.119Z,19.70
2023-04-19T11:23:21.916Z,10.10
2023-04-19T11:25:55.000Z,23.85
2023-04-19T11:28:24.968Z,9.88
2023-04-19T11:30:56.844Z,5.30
2023-04-19T11:33:28.916Z,5.38
2023-04-19T11:35:58.804Z,12.60
2023-04-19T11:38:34.005Z,8.50
2023-04-19T11:41:04.462Z,11.00
2023-04-19T11:43:40.655Z,4.28
2023-04-19T11:46:12.254Z,8.73
2023-04-19T11:48:43.110Z,8.68
2023-04-19T11:51:13.777Z,10.43
2023-04-19T11:53:46.725Z,5.45
2023-04-19T11:56:18.227Z,5.53
2023-04-19T11:58:50.166Z,14.52
2023-04-19T12:01:24.793Z,7.82
2023-04-19T12:03:56.777Z,8.10
2023-04-19T12:06:28.763Z,6.13
2023-04-19T12:09:01.805Z,7.90
2023-04-19T12:11:50.463Z,17.27
2023-04-19T12:14:23.066Z,7.65
2023-04-19T12:17:11.918Z,18.80
2023-04-19T12:19:47.017Z,7.65
2023-04-19T12:22:20.502Z,5.95
2023-04-19T12:24:56.141Z,11.65
2023-04-19T12:27:26.170Z,7.72
2023-04-19T12:29:56.392Z,13.25
2023-04-19T12:32:26.245Z,10.23
2023-04-19T12:34:56.980Z,8.07
2023-04-19T12:37:26.996Z,6.88
2023-04-19T12:40:00.585Z,6.88
2023-04-19T12:42:30.467Z,4.72
2023-04-19T12:45:00.448Z,7.57
2023-04-19T12:47:30.897Z,15.55
2023-04-19T12:50:02.013Z,9.52
2023-04-19T12:52:31.816Z,8.98
2023-04-19T12:55:04.630Z,6.88
2023-04-19T12:57:34.549Z,12.23
2023-04-19T13:00:05.222Z,10.43
2023-04-19T13:02:37.420Z,9.05
2023-04-19T13:05:08.180Z,9.82
2023-04-19T13:07:38.272Z,7.47
2023-04-19T13:10:12.653Z,5.43
2023-04-19T13:12:43.025Z,4.43
2023-04-19T13:15:13.855Z,11.90
2023-04-19T13:17:43.822Z,6.38
2023-04-19T13:20:17.184Z,9.57
2023-04-19T13:22:47.065Z,5.78
2023-04-19T13:25:19.673Z,5.80
2023-04-19T13:27:49.655Z,5.63
2023-04-19T13:30:19.644Z,7.65
2023-04-19T13:32:49.730Z,14.95
2023-04-19T13:35:19.752Z,24.13
2023-04-19T13:37:51.655Z,20.70
2023-04-19T13:40:24.176Z,10.93
2023-04-19T13:42:54.572Z,5.57
2023-04-19T13:45:24.713Z,5.55
2023-04-19T13:47:54.769Z,6.93
2023-04-19T13:50:24.713Z,5.45
2023-04-19T13:52:54.889Z,12.13
2023-04-19T13:55:30.554Z,15.88
2023-04-19T13:58:00.430Z,21.63
2023-04-19T14:00:30.490Z,13.52
2023-04-19T14:03:03.937Z,6.53
2023-04-19T14:05:33.945Z,11.05
2023-04-19T14:08:03.750Z,12.25
2023-04-19T14:10:37.583Z,10.27
2023-04-19T14:13:07.526Z,7.07
2023-04-19T14:15:40.283Z,8.82
2023-04-19T14:18:10.313Z,5.72
2023-04-19T14:20:40.399Z,9.00
2023-04-19T14:23:10.350Z,12.20
2023-04-19T14:25:42.909Z,5.40
2023-04-19T14:28:15.300Z,6.32
2023-04-19T14:30:45.272Z,4.53
2023-04-19T14:33:15.236Z,9.75
2023-04-19T14:35:45.640Z,4.40
2023-04-19T14:38:15.820Z,5.57
2023-04-19T14:40:49.810Z,4.85
2023-04-19T14:43:19.746Z,5.50
2023-04-19T14:45:51.524Z,8.52
2023-04-19T14:48:22.356Z,9.98
2023-04-19T14:50:52.498Z,4.82
2023-04-19T14:53:22.718Z,3.55
2023-04-19T14:55:55.760Z,4.63
2023-04-19T14:58:25.782Z,9.90
2023-04-19T15:00:55.998Z,8.50
2023-04-19T15:03:26.297Z,5.97
2023-04-19T15:05:56.403Z,4.05
2023-04-19T15:08:30.734Z,3.90
2023-04-19T15:11:03.658Z,7.72
2023-04-19T15:13:34.168Z,7.15
2023-04-19T15:16:04.169Z,7.28
2023-04-19T15:18:34.118Z,6.40
2023-04-19T15:21:05.498Z,13.55
2023-04-19T15:23:35.388Z,9.48
2023-04-19T15:26:08.051Z,3.05
2023-04-19T15:28:38.881Z,5.45
2023-04-19T15:31:10.718Z,4.88
2023-04-19T15:33:41.217Z,16.15
2023-04-19T15:36:11.215Z,4.47
2023-04-19T15:38:43.856Z,6.97
2023-04-19T15:41:16.765Z,6.07
2023-04-19T15:43:46.725Z,7.70
2023-04-19T15:46:17.652Z,13.07
2023-04-19T15:48:48.682Z,5.00
2023-04-19T15:51:18.731Z,4.25
2023-04-19T15:53:48.732Z,8.10
2023-04-19T15:56:21.494Z,10.05
2023-04-19T15:58:51.493Z,5.53
2023-04-19T16:01:23.140Z,7.20
2023-04-19T16:03:53.421Z,5.53
2023-04-19T16:06:23.533Z,7.78
2023-04-19T16:08:53.762Z,13.52
2023-04-19T16:11:26.732Z,5.88
2023-04-19T16:13:56.915Z,11.27
2023-04-19T16:16:27.186Z,5.90
2023-04-19T16:18:57.460Z,5.10
2023-04-19T16:21:28.779Z,6.13
2023-04-19T16:24:00.949Z,3.75
2023-04-19T16:26:33.845Z,4.82
2023-04-19T16:29:05.613Z,8.23
2023-04-19T16:31:35.749Z,4.43
2023-04-19T16:34:08.708Z,6.00
2023-04-19T16:36:38.637Z,4.70
2023-04-19T16:39:08.488Z,9.02
2023-04-19T16:41:41.278Z,7.63
2023-04-19T16:44:11.253Z,9.30
2023-04-19T16:46:41.274Z,7.53
2023-04-19T16:49:12.205Z,10.35
2023-04-19T16:51:42.129Z,4.35
2023-04-19T16:54:12.022Z,2.95
2023-04-19T16:56:44.669Z,10.90
2023-04-19T16:59:15.066Z,13.35
2023-04-19T17:01:45.166Z,4.43
2023-04-19T17:04:15.423Z,5.43
2023-04-19T17:06:45.409Z,3.97
2023-04-19T17:09:15.603Z,7.43
2023-04-19T17:11:48.245Z,13.80
2023-04-19T17:14:18.468Z,5.03
2023-04-19T17:16:48.483Z,5.47
2023-04-19T17:19:19.012Z,8.50
2023-04-19T17:21:49.792Z,3.50
2023-04-19T17:24:19.974Z,9.73
2023-04-19T17:26:52.483Z,10.90
2023-04-19T17:29:22.360Z,5.23
2023-04-19T17:31:52.364Z,4.43
2023-04-19T17:34:22.674Z,8.33
2023-04-19T17:36:52.636Z,4.83
2023-04-19T17:39:22.774Z,2.73
2023-04-19T17:41:55.223Z,8.80
2023-04-19T17:44:25.649Z,5.37
2023-04-19T17:46:55.598Z,6.20
2023-04-19T17:49:27.259Z,3.07
2023-04-19T17:51:58.264Z,4.00
2023-04-19T17:54:28.207Z,4.23
2023-04-19T17:57:02.707Z,6.43
2023-04-19T17:59:32.868Z,4.27
2023-04-19T18:02:02.908Z,5.90
2023-04-19T18:04:35.145Z,6.10
2023-04-19T18:07:05.175Z,3.83
2023-04-19T18:09:35.191Z,6.00
2023-04-19T18:12:08.309Z,7.47
2023-04-19T18:14:38.976Z,5.97
2023-04-19T18:17:09.126Z,6.07
2023-04-19T18:19:39.901Z,5.83
2023-04-19T18:22:09.939Z,7.07
2023-04-19T18:24:40.992Z,11.30
2023-04-19T18:27:13.796Z,4.90
2023-04-19T18:29:43.697Z,6.13
2023-04-19T18:32:13.713Z,9.77
2023-04-19T18:34:43.608Z,5.03
2023-04-19T18:37:18.848Z,5.30
2023-04-19T18:39:49.059Z,10.57
2023-04-19T18:42:21.669Z,5.43
2023-04-19T18:44:54.213Z,8.10
2023-04-19T18:47:24.682Z,7.77
2023-04-19T18:52:27.641Z,5.33
2023-04-19T18:54:58.623Z,6.43
2023-04-19T18:57:34.558Z,8.03
2023-04-19T19:00:06.724Z,9.53
2023-04-19T19:02:38.440Z,6.33
2023-04-19T19:05:13.758Z,4.97
2023-04-19T19:07:45.416Z,8.90
2023-04-19T19:10:20.979Z,7.07
2023-04-19T19:12:55.166Z,6.53
2023-04-19T19:15:25.144Z,6.20
2023-04-19T19:17:55.234Z,6.20
2023-04-19T19:20:26.258Z,4.97
2023-04-19T19:22:56.110Z,13.20
2023-04-19T19:25:26.259Z,8.70
2023-04-19T19:28:06.144Z,9.70
2023-04-19T19:30:45.063Z,8.33
2023-04-19T19:33:16.674Z,7.97
2023-04-19T19:35:46.718Z,5.47
2023-04-19T19:38:16.644Z,7.80
2023-04-19T19:41:22.542Z,10.53
2023-04-19T19:43:40.189Z,7.97
2023-04-19T19:46:10.945Z,8.57
2023-04-19T19:48:43.058Z,5.70
2023-04-19T19:51:42.231Z,8.30
2023-04-19T19:54:02.958Z,6.47
2023-04-19T19:56:34.806Z,6.67
2023-04-19T19:59:07.479Z,7.97
2023-04-19T20:01:37.426Z,6.30
2023-04-19T20:04:07.784Z,6.93
2023-04-19T20:07:24.718Z,8.80
2023-04-19T20:09:28.135Z,8.10
2023-04-19T20:11:58.045Z,9.10
2023-04-19T20:14:31.199Z,8.53
2023-04-19T20:17:01.273Z,7.00
2023-04-19T20:19:31.253Z,10.43
2023-04-19T20:22:04.126Z,9.63
2023-04-19T20:24:34.397Z,11.17
2023-04-19T20:27:04.466Z,17.00
2023-04-19T20:29:37.051Z,6.00
2023-04-19T20:32:08.883Z,8.73
2023-04-19T20:34:40.328Z,6.80
2023-04-19T20:37:10.507Z,5.70
2023-04-19T20:39:42.502Z,12.57
2023-04-19T20:42:12.529Z,7.27
2023-04-19T20:44:45.119Z,8.33
2023-04-19T20:47:16.178Z,5.13
2023-04-19T20:49:46.192Z,8.33
2023-04-19T20:52:16.414Z,5.37
2023-04-19T20:54:46.321Z,10.60
2023-04-19T20:57:16.281Z,5.03
2023-04-19T20:59:49.251Z,5.10
2023-04-19T21:02:19.433Z,6.87
2023-04-19T21:04:49.351Z,7.30
2023-04-19T21:07:20.217Z,7.03
2023-04-19T21:09:50.098Z,6.03
2023-04-19T21:12:20.452Z,5.73
2023-04-19T21:14:53.106Z,7.53
2023-04-19T21:17:23.531Z,8.20
2023-04-19T21:19:53.530Z,6.57
2023-04-19T21:22:23.458Z,8.93
2023-04-19T21:24:53.378Z,8.90
2023-04-19T21:27:23.356Z,10.57
2023-04-19T21:29:55.969Z,4.73
2023-04-19T21:32:28.310Z,6.63
2023-04-19T21:34:58.690Z,6.37
2023-04-19T21:37:33.949Z,11.53
2023-04-19T21:40:03.870Z,11.70
2023-04-19T21:42:33.822Z,6.50
2023-04-19T21:45:07.087Z,5.53
2023-04-19T21:47:37.014Z,7.33
2023-04-19T21:50:07.655Z,5.10
2023-04-19T21:52:37.634Z,5.70
2023-04-19T21:55:08.759Z,9.27
2023-04-19T21:57:38.758Z,7.17
2023-04-19T22:00:12.614Z,5.57
2023-04-19T22:02:42.583Z,6.63
2023-04-19T22:05:14.092Z,8.00
2023-04-19T22:07:43.909Z,5.33
2023-04-19T22:10:15.126Z,6.20
2023-04-19T22:12:57.429Z,5.83
2023-04-19T22:15:31.780Z,4.97
2023-04-19T22:18:03.255Z,7.13
2023-04-19T22:20:33.962Z,6.57
2023-04-19T22:23:04.024Z,8.70
2023-04-19T22:25:34.153Z,5.60
2023-04-19T22:28:06.104Z,6.47
2023-04-19T22:30:40.069Z,9.37
2023-04-19T22:33:10.272Z,6.43
2023-04-19T22:35:40.453Z,4.97
2023-04-19T22:38:10.528Z,6.63
2023-04-19T22:40:40.891Z,7.57
2023-04-19T22:43:10.917Z,6.77
2023-04-19T22:45:44.801Z,5.47
2023-04-19T22:48:17.468Z,8.33
2023-04-19T22:50:47.604Z,7.20
2023-04-19T22:53:17.446Z,7.23
2023-04-19T22:55:48.522Z,5.53
2023-04-19T22:58:18.538Z,11.03
2023-04-19T23:00:51.082Z,5.67
2023-04-19T23:03:21.106Z,10.30
2023-04-19T23:05:50.976Z,4.67
2023-04-19T23:08:21.110Z,4.63
2023-04-19T23:10:57.195Z,4.03
2023-04-19T23:13:27.014Z,4.37
2023-04-19T23:15:59.727Z,6.20
2023-04-19T23:18:30.196Z,8.63
2023-04-19T23:20:59.995Z,8.83
2023-04-19T23:23:29.859Z,6.20
2023-04-19T23:25:59.792Z,7.47
2023-04-19T23:28:29.680Z,7.47
2023-04-19T23:31:02.189Z,4.77
2023-04-19T23:33:32.130Z,5.37
2023-04-19T23:36:02.106Z,5.10
2023-04-19T23:38:31.954Z,7.97
2023-04-19T23:41:01.868Z,4.60
2023-04-19T23:43:31.874Z,6.30
2023-04-19T23:46:04.471Z,6.37
2023-04-19T23:48:34.797Z,7.17
2023-04-19T23:51:04.691Z,5.00
2023-04-19T23:53:34.528Z,4.77
2023-04-19T23:56:04.668Z,5.40
2023-04-19T23:58:34.479Z,5.33
